Dora, Iraq

11:02 PM AST on February 24, 2017 (GMT +0300)
Pedro61 | | Change Station

Elev 20 ft 33.24 °N, 44.33 °E | Updated 15 seconds ago

Clear
Clear
59.2 °F
Feels Like 59.2 °F
N
1.6
Wind Variable Wind from West
Gusts 2.2 mph

Today
High -- | Low -- °F
--% Chance of Precip.
Yesterday
High -- | Low -- °F
Precip. -- in
Pressure 30.27 in
Visibility -9999.0 miles
Clouds
Dew Point 25 °F
Humidity 27%
Rainfall 0.00 in
Snow Depth Not available.
6:36 AM 5:55 PM
Waning Crescent, 4% visible
METAR ORBI 242000Z 31004KT CAVOK 11/M03 Q1025 NOSIG
Pressure 30.27 in
Visibility -9999.0 miles
Clouds
Dew Point 25 °F
Humidity 27%
Rainfall 0.00 in
Snow Depth Not available.
6:36 AM 5:55 PM
Waning Crescent, 4% visible
METAR ORBI 242000Z 31004KT CAVOK 11/M03 Q1025 NOSIG

Get Your Daily Forecast Email!

Thanks for signing up!

Be on the lookout for a verification email in your inbox.

You'll start receiving the daily forecast at 8 AM.

×

10-Day Weather Forecast

No radar image for this location.
×

Almanac

Astronomy

Feb. 24, 2017 Rise Set
Actual Time
Civil Twilight
Nautical Twilight
Astronomical Twilight
Moon
Length of Visible Light
Length of Day
Tomorrow will be .
, % of the Moon is Illuminated

Today's Extremes

Country Highs Country Lows

Community

WunderPhotos

Upload Photos

1,962,540 photos uploaded!

WunderBlog® & News

Nearby

Air Quality

  Air Quality AQ Index Pollutant
Not available.

Snow Depth

Station Depth Elevation

Earthquake Activity

City Distance Mag. Time & Date
Minimum magnitude displayed is 2.5.

Coastal Water Temperatures

Place Temperature

Stations

Nearby Weather Stations

Station Location Temp. Windchill Dew Point Humidity Wind Precip. Elev Updated Type